createdAt,value
2019-03-21T00:02:42.673Z,63.03
2019-03-21T00:06:46.291Z,68.50
2019-03-21T00:11:27.417Z,65.60
2019-03-21T00:15:33.310Z,66.70
2019-03-21T00:19:38.002Z,67.50
2019-03-21T00:23:41.629Z,67.70
2019-03-21T00:27:46.033Z,62.80
2019-03-21T00:31:49.702Z,65.30
2019-03-21T00:35:53.639Z,64.90
2019-03-21T00:39:57.254Z,62.63
2019-03-21T00:44:01.599Z,59.10
2019-03-21T00:48:07.722Z,63.23
2019-03-21T00:52:12.212Z,60.70
2019-03-21T00:56:16.679Z,55.80
2019-03-21T01:00:27.247Z,60.13
2019-03-21T01:04:33.815Z,62.27
2019-03-21T01:08:37.446Z,61.73
2019-03-21T01:12:41.824Z,64.10
2019-03-21T01:16:46.179Z,63.77
2019-03-21T01:20:50.369Z,63.13
2019-03-21T01:24:54.370Z,59.90
2019-03-21T01:28:58.034Z,58.60
2019-03-21T01:33:02.375Z,62.20
2019-03-21T01:37:06.755Z,60.40
2019-03-21T01:41:11.407Z,65.70
2019-03-21T01:45:16.248Z,64.13
2019-03-21T01:49:19.928Z,74.73
2019-03-21T01:53:23.537Z,73.73
2019-03-21T01:57:27.128Z,69.00
2019-03-21T02:01:30.805Z,68.50
2019-03-21T02:05:34.435Z,67.50
2019-03-21T02:09:38.076Z,65.63
2019-03-21T02:13:43.524Z,67.97
2019-03-21T02:17:48.032Z,72.20
2019-03-21T02:21:52.484Z,71.27
2019-03-21T02:25:57.111Z,74.27
2019-03-21T02:30:01.457Z,69.43
2019-03-21T02:34:05.395Z,71.57
2019-03-21T02:38:10.080Z,74.17
2019-03-21T02:42:13.698Z,79.30
2019-03-21T02:46:17.311Z,74.33
2019-03-21T02:50:27.391Z,73.27
2019-03-21T02:54:31.111Z,67.93
2019-03-21T02:58:34.771Z,70.60
2019-03-21T03:02:38.495Z,67.07
2019-03-21T03:06:42.315Z,70.00
2019-03-21T03:10:49.183Z,68.50
2019-03-21T03:14:53.492Z,69.70
2019-03-21T03:18:57.055Z,66.07
2019-03-21T03:23:00.832Z,68.17
2019-03-21T03:27:05.344Z,66.97
2019-03-21T03:31:08.955Z,67.17
2019-03-21T03:35:12.775Z,61.47
2019-03-21T03:39:16.706Z,65.93
2019-03-21T03:43:20.272Z,62.33
2019-03-21T03:47:24.571Z,64.67
2019-03-21T03:51:29.403Z,65.73
2019-03-21T03:55:33.224Z,59.27
2019-03-21T03:59:37.566Z,60.57
2019-03-21T04:03:41.934Z,63.17
2019-03-21T04:07:45.512Z,60.57
2019-03-21T04:11:49.867Z,61.63
2019-03-21T04:15:54.061Z,61.73
2019-03-21T04:19:57.912Z,60.00
2019-03-21T04:24:01.851Z,62.53
2019-03-21T04:28:06.165Z,58.27
2019-03-21T04:32:09.738Z,59.90
2019-03-21T04:36:13.359Z,61.77
2019-03-21T04:40:17.288Z,57.80
2019-03-21T04:44:20.889Z,59.13
2019-03-21T04:48:24.450Z,57.23
2019-03-21T04:52:29.301Z,57.97
2019-03-21T04:56:32.859Z,63.47
2019-03-21T05:00:37.704Z,56.57
2019-03-21T05:04:42.090Z,62.50
2019-03-21T05:08:46.383Z,62.10
2019-03-21T05:12:49.947Z,63.73
2019-03-21T05:16:54.282Z,58.20
2019-03-21T05:20:58.715Z,62.20
2019-03-21T05:25:03.041Z,61.17
2019-03-21T05:29:07.306Z,59.57
2019-03-21T05:33:11.626Z,60.23
2019-03-21T05:37:16.263Z,58.20
2019-03-21T05:41:19.868Z,63.10
2019-03-21T05:45:24.298Z,58.03
2019-03-21T05:49:28.939Z,57.70
2019-03-21T05:53:32.583Z,55.10
2019-03-21T05:57:36.170Z,59.50
2019-03-21T06:01:39.736Z,57.23
2019-03-21T06:05:44.465Z,54.73
2019-03-21T06:09:48.022Z,59.37
2019-03-21T06:13:51.635Z,56.07
2019-03-21T06:18:04.702Z,59.40
2019-03-21T06:22:31.632Z,60.07
2019-03-21T06:26:41.003Z,55.30
2019-03-21T06:30:45.355Z,57.17
2019-03-21T06:34:49.644Z,55.00
2019-03-21T06:38:53.951Z,53.17
2019-03-21T06:42:58.379Z,50.20
2019-03-21T06:47:02.721Z,50.10
2019-03-21T06:51:06.986Z,50.30
2019-03-21T06:55:11.752Z,53.90
2019-03-21T06:59:15.326Z,48.20
2019-03-21T07:03:20.027Z,50.20
2019-03-21T07:07:23.594Z,48.27
2019-03-21T07:11:27.186Z,46.47
2019-03-21T07:15:31.450Z,49.10
2019-03-21T07:19:35.751Z,50.27
2019-03-21T07:23:39.595Z,47.47
2019-03-21T07:27:43.922Z,47.47
2019-03-21T07:31:47.514Z,43.30
2019-03-21T07:35:51.120Z,42.40
2019-03-21T07:39:55.282Z,44.47
2019-03-21T07:43:59.191Z,42.30
2019-03-21T07:48:05.111Z,43.00
2019-03-21T07:52:08.176Z,41.40
2019-03-21T07:56:12.286Z,43.57
2019-03-21T08:00:16.162Z,41.77
2019-03-21T08:04:20.031Z,41.53
2019-03-21T08:08:24.337Z,38.10
2019-03-21T08:12:28.876Z,39.90
2019-03-21T08:16:32.707Z,39.20
2019-03-21T08:20:36.265Z,38.53
2019-03-21T08:24:39.864Z,39.03
2019-03-21T08:28:43.842Z,39.97
2019-03-21T08:32:47.720Z,36.97
2019-03-21T08:36:51.989Z,36.80
2019-03-21T08:40:56.899Z,37.20
2019-03-21T08:45:01.174Z,39.90
2019-03-21T08:49:05.995Z,39.47
2019-03-21T08:53:10.262Z,37.73
2019-03-21T08:57:14.766Z,38.40
2019-03-21T09:01:19.058Z,38.77
2019-03-21T09:05:22.719Z,37.80
2019-03-21T09:09:26.991Z,38.13
2019-03-21T09:13:30.606Z,36.00
2019-03-21T09:17:34.205Z,32.33
2019-03-21T09:21:37.899Z,35.43
2019-03-21T09:25:41.591Z,34.83
2019-03-21T09:29:53.493Z,33.30
2019-03-21T09:33:52.299Z,33.00
2019-03-21T09:37:57.096Z,33.50
2019-03-21T09:42:00.675Z,31.87
2019-03-21T09:46:05.495Z,28.07
2019-03-21T09:50:09.113Z,29.80
2019-03-21T09:54:13.593Z,31.73
2019-03-21T09:58:18.758Z,33.40
2019-03-21T10:02:22.431Z,34.57
2019-03-21T10:06:26.033Z,35.40
2019-03-21T10:10:30.272Z,36.07
2019-03-21T10:14:34.499Z,34.77
2019-03-21T10:18:40.935Z,35.20
2019-03-21T10:22:44.575Z,36.03
2019-03-21T10:26:48.239Z,37.47
2019-03-21T10:30:52.539Z,34.53
2019-03-21T10:34:56.948Z,33.00
2019-03-21T10:39:01.297Z,35.37
2019-03-21T10:43:06.176Z,33.60
2019-03-21T10:47:09.811Z,33.97
2019-03-21T10:51:13.536Z,34.30
2019-03-21T10:55:17.956Z,35.20
2019-03-21T10:59:21.849Z,38.30
2019-03-21T11:03:25.461Z,34.93
2019-03-21T11:07:29.877Z,38.63
2019-03-21T11:11:34.396Z,39.27
2019-03-21T11:15:38.151Z,38.23
2019-03-21T11:19:41.755Z,37.47
2019-03-21T11:23:45.519Z,37.33
2019-03-21T11:27:49.123Z,38.27
2019-03-21T11:31:53.093Z,35.97
2019-03-21T11:35:57.575Z,34.97
2019-03-21T11:40:02.303Z,34.50
2019-03-21T11:44:06.298Z,35.30
2019-03-21T11:48:10.370Z,32.73
2019-03-21T11:52:18.501Z,32.90
2019-03-21T11:56:21.257Z,32.43
2019-03-21T12:00:24.988Z,28.57
2019-03-21T12:04:29.355Z,25.50
2019-03-21T12:08:33.031Z,27.17
2019-03-21T12:12:36.698Z,27.63
2019-03-21T12:16:41.075Z,27.30
2019-03-21T12:20:44.756Z,25.43
2019-03-21T12:24:48.428Z,25.10
2019-03-21T12:28:52.122Z,28.37
2019-03-21T12:32:56.798Z,24.87
2019-03-21T12:37:00.448Z,24.83
2019-03-21T12:41:04.059Z,25.00
2019-03-21T12:45:08.017Z,23.80
2019-03-21T12:49:11.643Z,21.83
2019-03-21T12:53:15.326Z,25.40
2019-03-21T12:57:19.238Z,23.20
2019-03-21T13:01:23.189Z,23.50
2019-03-21T13:05:29.025Z,25.20
2019-03-21T13:09:33.468Z,24.90
2019-03-21T13:13:37.767Z,25.50
2019-03-21T13:17:41.390Z,23.07
2019-03-21T13:21:45.387Z,23.80
2019-03-21T13:25:49.044Z,23.00
2019-03-21T13:29:53.387Z,22.23
2019-03-21T13:33:57.027Z,22.03
2019-03-21T13:38:00.675Z,22.00
2019-03-21T13:42:04.482Z,21.57
2019-03-21T13:46:08.170Z,21.20
2019-03-21T13:50:11.858Z,21.60
2019-03-21T13:54:15.481Z,21.33
2019-03-21T13:58:19.103Z,21.53
2019-03-21T14:02:22.789Z,24.80
2019-03-21T14:06:26.679Z,22.17
2019-03-21T14:10:32.347Z,21.93
2019-03-21T14:14:36.086Z,23.10
2019-03-21T14:18:39.663Z,23.30
2019-03-21T14:22:43.507Z,23.13
2019-03-21T14:26:47.109Z,24.63
2019-03-21T14:30:50.747Z,22.27
2019-03-21T14:34:55.033Z,21.97
2019-03-21T14:38:58.666Z,21.73
2019-03-21T14:43:02.239Z,23.40
2019-03-21T14:47:06.702Z,22.40
2019-03-21T14:51:10.291Z,25.67
2019-03-21T14:55:14.295Z,26.10
2019-03-21T14:59:17.923Z,24.53
2019-03-21T15:03:21.542Z,25.60
2019-03-21T15:07:25.087Z,26.23
2019-03-21T15:11:28.806Z,28.07
2019-03-21T15:15:33.123Z,25.70
2019-03-21T15:19:39.256Z,29.67
2019-03-21T15:23:43.726Z,25.70
2019-03-21T15:27:47.343Z,26.90
2019-03-21T15:31:50.905Z,26.57
2019-03-21T15:35:54.504Z,25.37
2019-03-21T15:39:58.775Z,25.97
2019-03-21T15:44:02.430Z,27.40
2019-03-21T15:48:05.994Z,28.10
2019-03-21T15:52:09.646Z,26.50
2019-03-21T15:56:13.206Z,25.87
2019-03-21T16:00:19.290Z,26.00
2019-03-21T16:04:22.982Z,26.70
2019-03-21T16:08:27.409Z,25.47
2019-03-21T16:12:31.678Z,26.63
2019-03-21T16:16:35.280Z,29.43
2019-03-21T16:20:38.838Z,26.60
2019-03-21T16:24:42.458Z,27.00
2019-03-21T16:28:46.006Z,26.53
2019-03-21T16:32:56.296Z,26.70
2019-03-21T16:37:00.928Z,25.37
2019-03-21T16:41:04.618Z,25.60
2019-03-21T16:45:09.142Z,24.90
2019-03-21T16:49:13.414Z,22.30
2019-03-21T16:53:17.754Z,19.70
2019-03-21T16:57:22.031Z,20.83
2019-03-21T17:01:25.629Z,23.50
2019-03-21T17:05:29.277Z,21.53
2019-03-21T17:09:33.795Z,20.87
2019-03-21T17:13:38.055Z,21.30
2019-03-21T17:17:41.898Z,22.13
2019-03-21T17:21:45.508Z,23.07
2019-03-21T17:25:49.123Z,23.50
2019-03-21T17:29:53.402Z,22.07
2019-03-21T17:33:57.702Z,24.77
2019-03-21T17:38:02.679Z,22.07
2019-03-21T17:42:06.290Z,24.13
2019-03-21T17:46:10.573Z,21.57
2019-03-21T17:50:14.635Z,21.60
2019-03-21T17:54:18.218Z,19.93
2019-03-21T17:58:21.846Z,21.60
2019-03-21T18:02:25.487Z,21.07
2019-03-21T18:06:30.907Z,18.90
2019-03-21T18:10:35.250Z,21.13
2019-03-21T18:14:39.559Z,22.67
2019-03-21T18:18:43.128Z,21.60
2019-03-21T18:22:46.749Z,24.67
2019-03-21T18:26:50.306Z,29.20
2019-03-21T18:30:54.599Z,31.37
2019-03-21T18:34:58.442Z,28.90
2019-03-21T18:39:02.942Z,27.20
2019-03-21T18:43:07.454Z,25.83
2019-03-21T18:47:11.116Z,25.00
2019-03-21T18:51:14.690Z,27.10
2019-03-21T18:55:19.164Z,28.80
2019-03-21T18:59:23.532Z,25.53
2019-03-21T19:03:27.152Z,27.23
2019-03-21T19:07:31.691Z,24.80
2019-03-21T19:11:35.764Z,23.93
2019-03-21T19:15:39.335Z,24.80
2019-03-21T19:19:43.290Z,28.40
2019-03-21T19:23:46.864Z,26.40
2019-03-21T19:27:50.652Z,25.53
2019-03-21T19:31:54.243Z,27.70
2019-03-21T19:35:58.893Z,24.50
2019-03-21T19:40:02.534Z,24.73
2019-03-21T19:44:06.563Z,24.07
2019-03-21T19:48:10.125Z,27.03
2019-03-21T19:52:14.106Z,24.77
2019-03-21T19:56:18.459Z,26.67
2019-03-21T20:00:23.081Z,22.87
2019-03-21T20:04:26.635Z,23.40
2019-03-21T20:08:31.354Z,23.70
2019-03-21T20:12:35.012Z,24.83
2019-03-21T20:16:38.607Z,23.77
2019-03-21T20:20:42.961Z,23.77
2019-03-21T20:24:47.284Z,24.80
2019-03-21T20:28:51.568Z,24.10
2019-03-21T20:32:55.202Z,24.13
2019-03-21T20:36:59.084Z,23.40
2019-03-21T20:41:02.682Z,22.50
2019-03-21T20:45:06.851Z,22.67
2019-03-21T20:49:10.443Z,23.77
2019-03-21T20:53:14.007Z,25.63
2019-03-21T20:57:18.323Z,26.90
2019-03-21T21:01:22.628Z,25.90
2019-03-21T21:05:27.019Z,26.30
2019-03-21T21:09:32.595Z,28.80
2019-03-21T21:13:36.900Z,28.70
2019-03-21T21:17:42.945Z,26.80
2019-03-21T21:21:46.329Z,26.27
2019-03-21T21:25:50.083Z,26.97
2019-03-21T21:29:53.676Z,27.90
2019-03-21T21:33:57.267Z,32.63
2019-03-21T21:38:00.909Z,31.60
2019-03-21T21:42:04.508Z,28.77
2019-03-21T21:46:08.477Z,30.17
2019-03-21T21:50:13.473Z,29.63
2019-03-21T21:54:17.408Z,29.80
2019-03-21T21:58:21.779Z,28.77
2019-03-21T22:02:25.465Z,26.70
2019-03-21T22:06:30.147Z,28.67
2019-03-21T22:10:34.796Z,29.33
2019-03-21T22:14:38.746Z,28.73
2019-03-21T22:18:42.411Z,27.03
2019-03-21T22:22:46.063Z,29.10
2019-03-21T22:26:49.706Z,29.20
2019-03-21T22:30:53.334Z,30.37
2019-03-21T22:34:56.982Z,30.27
2019-03-21T22:39:01.381Z,31.00
2019-03-21T22:43:05.893Z,31.30
2019-03-21T22:47:09.468Z,31.17
2019-03-21T22:51:14.168Z,34.47
2019-03-21T22:55:17.732Z,29.30
2019-03-21T22:59:21.430Z,31.57
2019-03-21T23:03:25.051Z,30.67
2019-03-21T23:07:28.694Z,30.27
2019-03-21T23:11:33.519Z,30.30
2019-03-21T23:15:37.259Z,31.40
2019-03-21T23:19:40.829Z,32.47
2019-03-21T23:23:45.323Z,34.83
2019-03-21T23:27:48.950Z,36.63
2019-03-21T23:31:52.616Z,32.70
2019-03-21T23:35:56.234Z,33.80
2019-03-21T23:40:00.591Z,36.10
2019-03-21T23:44:04.270Z,35.60
2019-03-21T23:48:08.224Z,35.43
2019-03-21T23:52:12.111Z,36.40
2019-03-21T23:56:15.822Z,35.43
